createdAt,value
2019-04-01T00:02:27.753Z,101141.55
2019-04-01T00:07:31.232Z,101144.91
2019-04-01T00:12:34.706Z,101141.34
2019-04-01T00:17:38.181Z,101142.31
2019-04-01T00:22:41.758Z,101142.94
2019-04-01T00:27:45.195Z,101146.90
2019-04-01T00:32:48.663Z,101144.12
2019-04-01T00:37:52.152Z,101149.67
2019-04-01T00:42:59.915Z,101146.90
2019-04-01T00:48:03.572Z,101151.45
2019-04-01T00:53:07.042Z,101153.64
2019-04-01T00:58:11.746Z,101153.05
2019-04-01T01:03:15.220Z,101160.58
2019-04-01T01:08:18.687Z,101165.34
2019-04-01T01:13:22.159Z,101164.75
2019-04-01T01:18:25.637Z,101171.09
2019-04-01T01:23:29.116Z,101167.52
2019-04-01T01:28:32.583Z,101172.28
2019-04-01T01:33:36.060Z,101162.36
2019-04-01T01:38:39.532Z,101169.11
2019-04-01T01:43:43.004Z,101168.91
2019-04-01T01:48:46.502Z,101166.13
2019-04-01T01:53:49.946Z,101157.02
2019-04-01T01:58:53.420Z,101156.81
2019-04-01T02:03:56.909Z,101157.80
2019-04-01T02:09:00.376Z,101165.94
2019-04-01T02:14:03.857Z,101163.16
2019-04-01T02:19:07.341Z,101167.12
2019-04-01T02:24:10.812Z,101164.95
2019-04-01T02:29:14.288Z,101162.96
2019-04-01T02:34:17.791Z,101159.59
2019-04-01T02:39:21.260Z,101161.38
2019-04-01T02:44:24.731Z,101160.19
2019-04-01T02:49:28.212Z,101160.58
2019-04-01T02:54:31.702Z,101156.02
2019-04-01T02:59:35.152Z,101155.82
2019-04-01T03:04:38.623Z,101156.42
2019-04-01T03:09:42.094Z,101161.38
2019-04-01T03:14:45.566Z,101158.20
2019-04-01T03:19:49.039Z,101162.77
2019-04-01T03:24:52.510Z,101163.36
2019-04-01T03:29:55.982Z,101157.60
2019-04-01T03:34:59.437Z,101164.95
2019-04-01T03:40:02.941Z,101163.95
2019-04-01T03:45:06.826Z,101164.95
2019-04-01T03:50:10.283Z,101160.38
2019-04-01T03:55:13.734Z,101152.05
2019-04-01T04:00:17.462Z,101153.64
2019-04-01T04:05:21.184Z,101160.38
2019-04-01T04:10:24.656Z,101163.36
2019-04-01T04:15:28.093Z,101168.72
2019-04-01T04:20:31.620Z,101149.70
2019-04-01T04:25:35.245Z,101169.90
2019-04-01T04:30:38.704Z,101169.90
2019-04-01T04:35:42.162Z,101171.88
2019-04-01T04:40:45.626Z,101167.72
2019-04-01T04:45:49.082Z,101166.33
2019-04-01T04:50:52.539Z,101171.88
2019-04-01T04:55:55.993Z,101172.28
2019-04-01T05:00:59.453Z,101180.02
2019-04-01T05:06:02.918Z,101179.42
2019-04-01T05:11:06.370Z,101175.05
2019-04-01T05:16:09.827Z,101181.80
2019-04-01T05:21:14.792Z,101169.92
2019-04-01T05:26:20.016Z,101183.02
2019-04-01T05:31:25.312Z,101187.77
2019-04-01T05:36:29.007Z,101191.34
2019-04-01T05:41:33.007Z,101193.13
2019-04-01T05:46:36.633Z,101192.33
2019-04-01T05:51:40.089Z,101193.92
2019-04-01T05:56:43.557Z,101192.33
2019-04-01T06:01:48.588Z,101193.13
2019-04-01T06:06:52.050Z,101202.64
2019-04-01T06:11:55.679Z,101207.59
2019-04-01T06:16:59.214Z,101199.07
2019-04-01T06:22:02.679Z,101199.86
2019-04-01T06:27:06.404Z,101208.78
2019-04-01T06:32:09.861Z,101213.55
2019-04-01T06:37:13.316Z,101210.17
2019-04-01T06:42:16.771Z,101188.39
2019-04-01T06:47:20.596Z,101209.58
2019-04-01T06:52:24.419Z,101217.91
2019-04-01T06:57:27.875Z,101207.41
2019-04-01T07:02:31.334Z,101212.34
2019-04-01T07:07:34.793Z,101210.95
2019-04-01T07:12:38.251Z,101209.80
2019-04-01T07:17:42.542Z,101203.45
2019-04-01T07:22:45.996Z,101192.56
2019-04-01T07:27:49.453Z,101199.92
2019-04-01T07:32:52.913Z,101196.15
2019-04-01T07:37:56.368Z,101206.25
2019-04-01T07:42:59.832Z,101213.37
2019-04-01T07:48:03.459Z,101210.60
2019-04-01T07:53:06.913Z,101204.48
2019-04-01T07:58:10.643Z,101208.64
2019-04-01T08:03:14.352Z,101216.17
2019-04-01T08:08:17.873Z,101215.95
2019-04-01T08:13:21.397Z,101208.20
2019-04-01T08:18:25.020Z,101218.12
2019-04-01T08:23:28.544Z,101214.34
2019-04-01T08:28:32.025Z,101207.57
2019-04-01T08:33:35.485Z,101200.04
2019-04-01T08:38:38.952Z,101190.53
2019-04-01T08:43:42.763Z,101216.30
2019-04-01T08:48:46.241Z,101194.46
2019-04-01T08:53:50.354Z,101199.05
2019-04-01T08:58:53.893Z,101192.28
2019-04-01T09:03:57.369Z,101186.73
2019-04-01T09:09:04.526Z,101188.91
2019-04-01T09:14:08.007Z,101193.08
2019-04-01T09:19:11.487Z,101182.56
2019-04-01T09:24:14.965Z,101185.97
2019-04-01T09:29:18.441Z,101181.18
2019-04-01T09:34:21.918Z,101179.42
2019-04-01T09:39:25.392Z,101183.39
2019-04-01T09:44:36.498Z,101171.48
2019-04-01T09:49:34.064Z,101170.89
2019-04-01T09:54:37.540Z,101166.13
2019-04-01T09:59:41.018Z,101171.29
2019-04-01T10:04:44.504Z,101163.36
2019-04-01T10:09:47.978Z,101160.38
2019-04-01T10:14:51.453Z,101154.03
2019-04-01T10:19:54.934Z,101144.32
2019-04-01T10:24:58.407Z,101145.34
2019-04-01T10:30:01.889Z,101131.06
2019-04-01T10:35:07.437Z,101119.76
2019-04-01T10:40:11.447Z,101115.59
2019-04-01T10:45:14.991Z,101115.97
2019-04-01T10:50:18.952Z,101100.50
2019-04-01T10:55:22.400Z,101101.09
2019-04-01T11:00:25.955Z,101096.34
2019-04-01T11:05:29.425Z,101110.41
2019-04-01T11:10:32.871Z,101088.60
2019-04-01T11:15:36.353Z,101076.70
2019-04-01T11:20:39.842Z,101080.47
2019-04-01T11:25:43.306Z,101076.31
2019-04-01T11:30:46.802Z,101070.16
2019-04-01T11:35:50.303Z,101066.00
2019-04-01T11:40:53.817Z,101058.47
2019-04-01T11:45:57.323Z,101054.10
2019-04-01T11:51:00.888Z,101038.76
2019-04-01T11:56:04.583Z,101034.16
2019-04-01T12:01:08.120Z,101035.10
2019-04-01T12:06:11.536Z,101022.20
2019-04-01T12:11:15.004Z,101019.61
2019-04-01T12:16:18.480Z,101015.05
2019-04-01T12:21:21.963Z,101001.94
2019-04-01T12:26:25.433Z,100997.95
2019-04-01T12:31:28.909Z,100979.28
2019-04-01T12:36:32.381Z,100985.81
2019-04-01T12:41:35.852Z,100969.73
2019-04-01T12:46:39.324Z,100958.42
2019-04-01T12:51:42.871Z,100953.27
2019-04-01T12:56:46.352Z,100950.25
2019-04-01T13:01:49.978Z,100931.22
2019-04-01T13:06:53.575Z,100923.09
2019-04-01T13:11:57.043Z,100914.13
2019-04-01T13:17:00.517Z,100914.52
2019-04-01T13:22:03.988Z,100906.19
2019-04-01T13:27:09.379Z,100903.40
2019-04-01T13:32:13.656Z,100886.31
2019-04-01T13:37:18.286Z,100872.02
2019-04-01T13:42:24.809Z,100869.98
2019-04-01T13:47:27.081Z,100865.03
2019-04-01T13:52:32.057Z,100860.47
2019-04-01T13:57:36.281Z,100847.58
2019-04-01T14:02:39.757Z,100851.75
2019-04-01T14:07:43.232Z,100829.34
2019-04-01T14:12:46.702Z,100829.14
2019-04-01T14:17:50.167Z,100822.80
2019-04-01T14:22:53.795Z,100819.83
2019-04-01T14:27:57.299Z,100814.82
2019-04-01T14:33:00.763Z,100808.86
2019-04-01T14:38:04.249Z,100799.93
2019-04-01T14:43:07.718Z,100794.17
2019-04-01T14:48:11.196Z,100779.89
2019-04-01T14:53:14.659Z,100780.28
2019-04-01T14:58:18.135Z,100774.12
2019-04-01T15:03:21.609Z,100762.59
2019-04-01T15:08:25.087Z,100760.00
2019-04-01T15:13:28.566Z,100753.06
2019-04-01T15:18:34.289Z,100747.09
2019-04-01T15:23:37.247Z,100739.97
2019-04-01T15:28:40.782Z,100738.77
2019-04-01T15:33:44.261Z,100728.45
2019-04-01T15:38:47.737Z,100722.48
2019-04-01T15:43:51.215Z,100712.90
2019-04-01T15:48:54.690Z,100713.88
2019-04-01T15:54:01.263Z,100706.44
2019-04-01T15:59:03.372Z,100703.66
2019-04-01T16:04:08.470Z,100691.79
2019-04-01T16:09:12.102Z,100684.84
2019-04-01T16:14:18.999Z,100675.91
2019-04-01T16:19:20.773Z,100680.87
2019-04-01T16:24:24.252Z,100679.29
2019-04-01T16:29:27.729Z,100677.49
2019-04-01T16:34:31.200Z,100654.30
2019-04-01T16:39:34.671Z,100654.08
2019-04-01T16:44:38.140Z,100646.53
2019-04-01T16:49:41.595Z,100654.86
2019-04-01T16:54:48.111Z,100651.70
2019-04-01T16:59:51.572Z,100653.09
2019-04-01T17:04:55.031Z,100651.52
2019-04-01T17:09:58.484Z,100651.52
2019-04-01T17:15:03.681Z,100652.30
2019-04-01T17:20:07.683Z,100649.34
2019-04-01T17:25:11.197Z,100655.53
2019-04-01T17:30:15.388Z,100641.07
2019-04-01T17:35:18.919Z,100638.48
2019-04-01T17:40:22.377Z,100646.81
2019-04-01T17:45:34.506Z,100653.75
2019-04-01T17:50:38.035Z,100653.75
2019-04-01T17:55:41.568Z,100647.23
2019-04-01T18:00:46.670Z,100647.23
2019-04-01T18:05:50.134Z,100654.17
2019-04-01T18:10:53.589Z,100657.55
2019-04-01T18:15:57.591Z,100661.90
2019-04-01T18:21:01.254Z,100665.50
2019-04-01T18:26:04.953Z,100669.06
2019-04-01T18:31:08.414Z,100672.03
2019-04-01T18:36:12.346Z,100669.66
2019-04-01T18:41:15.803Z,100673.83
2019-04-01T18:46:21.000Z,100678.08
2019-04-01T18:51:24.437Z,100684.94
2019-04-01T18:56:28.988Z,100687.55
2019-04-01T19:01:32.544Z,100673.67
2019-04-01T19:06:36.091Z,100679.03
2019-04-01T19:11:39.837Z,100663.56
2019-04-01T19:16:43.298Z,100665.15
2019-04-01T19:21:46.759Z,100669.66
2019-04-01T19:26:50.223Z,100663.56
2019-04-01T19:31:53.686Z,100671.30
2019-04-01T19:36:58.880Z,100671.11
2019-04-01T19:42:02.483Z,100674.08
2019-04-01T19:47:06.923Z,100664.17
2019-04-01T19:52:10.489Z,100677.08
2019-04-01T19:57:13.950Z,100666.56
2019-04-01T20:02:17.408Z,100654.67
2019-04-01T20:07:20.871Z,100651.70
2019-04-01T20:12:24.327Z,100652.91
2019-04-01T20:17:27.782Z,100648.92
2019-04-01T20:22:31.242Z,100637.81
2019-04-01T20:27:34.697Z,100636.23
2019-04-01T20:32:38.162Z,100631.91
2019-04-01T20:37:41.652Z,100627.56
2019-04-01T20:42:46.350Z,100622.01
2019-04-01T20:47:50.398Z,100617.84
2019-04-01T20:52:54.035Z,100611.69
2019-04-01T20:57:57.501Z,100605.34
2019-04-01T21:03:01.250Z,100605.56
2019-04-01T21:08:05.332Z,100593.73
2019-04-01T21:13:08.786Z,100587.39
2019-04-01T21:18:12.246Z,100583.64
2019-04-01T21:23:15.706Z,100580.70
2019-04-01T21:28:19.170Z,100579.73
2019-04-01T21:33:22.629Z,100573.20
2019-04-01T21:38:26.087Z,100572.59
2019-04-01T21:43:29.553Z,100561.72
2019-04-01T21:48:33.011Z,100566.48
2019-04-01T21:53:36.473Z,100560.73
2019-04-01T21:58:39.927Z,100560.58
2019-04-01T22:03:43.391Z,100561.97
2019-04-01T22:08:46.847Z,100556.23
2019-04-01T22:13:50.312Z,100549.10
2019-04-01T22:18:53.768Z,100544.14
2019-04-01T22:23:57.224Z,100539.98
2019-04-01T22:29:00.680Z,100535.03
2019-04-01T22:34:04.139Z,100518.98
2019-04-01T22:39:07.662Z,100514.81
2019-04-01T22:44:11.123Z,100509.27
2019-04-01T22:49:14.583Z,100508.48
2019-04-01T22:54:18.037Z,100496.59
2019-04-01T22:59:21.491Z,100489.27
2019-04-01T23:04:24.950Z,100483.72
2019-04-01T23:09:29.036Z,100488.67
2019-04-01T23:14:32.896Z,100481.73
2019-04-01T23:19:36.345Z,100487.47
2019-04-01T23:24:39.799Z,100485.89
2019-04-01T23:29:43.257Z,100480.19
2019-04-01T23:34:46.712Z,100472.62
2019-04-01T23:39:50.169Z,100476.63
2019-04-01T23:44:53.624Z,100457.61
2019-04-01T23:49:57.080Z,100457.61
2019-04-01T23:55:00.654Z,100455.44
